Petrified Forest Natl Pk, Arizona
Current Conditions -  °F | °C
As of 2:54 AM on Thursday 18 Dec 2014 (Local Time) from KSJN Reporting Station
Broken Clouds Broken Clouds  
Wind Chill: 31°   Ceiling: 6000
Heat Index: 31°   Visibility: 10mi
Dew Point: 28°   Wind: 0mph
Humidity: 89%   Direction: NA
Pressure: 30.1"   Gusts: NA
Location:  34.7916°N, 109.878°W
Report Text: KSJN 180954Z AUTO 00000KT 10SM BKN060 BKN075 M01/M02 A3010 RMK AO2 SLP180 T10061022
Loading
Personal Weather Stations






























Interactive Weather Map New forecast layout! Learn more

10-Day Weather Forecast

Advertisements
Track Severe Weather on mobile